| time (UTC) | temp C | wind direction | speed KPH | gust KPH | rain 1hr cm | rain 24hr cm | rain mn cm | humidity % | barometer mb |
| 20260906110025 | 21 | 141 | 0.0 | 0.0 | 0.00 | 0.41 | 0.28 | 94 | 1014.3 |
| 20260906104527 | 21 | 55 | 0.0 | 0.0 | 0.00 | 0.41 | 0.28 | 94 | 1014.2 |
| 20260906103027 | 21 | 55 | 0.0 | 1.6 | 0.00 | 0.41 | 0.28 | 93 | 1013.9 |
| 20260906101524 | 21 | 72 | 0.0 | 0.0 | 0.00 | 0.41 | 0.28 | 93 | 1013.8 |
| 20260906100026 | 21 | 39 | 0.0 | 0.0 | 0.00 | 0.41 | 0.28 | 93 | 1013.7 |
| 20260906094527 | 21 | 39 | 0.0 | 0.0 | 0.00 | 0.41 | 0.28 | 93 | 1013.5 |
| 20260906093036 | 21 | 39 | 0.0 | 0.0 | 0.00 | 0.41 | 0.28 | 93 | 1013.4 |
| 20260906091531 | 21 | 39 | 0.0 | 0.0 | 0.00 | 0.41 | 0.28 | 93 | 1013.6 |
| 20260906090036 | 21 | 39 | 0.0 | 0.0 | 0.00 | 0.41 | 0.28 | 93 | 1013.7 |
| 20260906084526 | 21 | 39 | 0.0 | 0.0 | 0.00 | 0.41 | 0.28 | 93 | 1013.9 |
| 20260906083034 | 21 | 39 | 0.0 | 0.0 | 0.00 | 0.41 | 0.28 | 93 | 1013.8 |
| 20260906081530 | 21 | 39 | 0.0 | 0.0 | 0.00 | 0.41 | 0.28 | 93 | 1013.8 |
| 20260906080015 | 21 | 39 | 0.0 | 0.0 | 0.00 | 0.41 | 0.28 | 93 | 1013.6 |
| 20260906074523 | 22 | 39 | 0.0 | 0.0 | 0.00 | 0.41 | 0.28 | 93 | 1013.6 |
| 20260906073027 | 22 | 39 | 0.0 | 0.0 | 0.00 | 0.41 | 0.28 | 93 | 1013.6 |
| 20260906071532 | 22 | 39 | 0.0 | 0.0 | 0.00 | 0.41 | 0.28 | 93 | 1013.7 |
| 20260906070036 | 22 | 39 | 0.0 | 0.0 | 0.00 | 0.41 | 0.28 | 93 | 1013.9 |
| 20260906064518 | 22 | 39 | 0.0 | 0.0 | 0.00 | 0.41 | 0.28 | 93 | 1013.7 |
| 20260906063040 | 22 | 8 | 0.0 | 0.0 | 0.05 | 0.41 | 0.28 | 93 | 1013.8 |
| 20260906061505 | 22 | 8 | 0.0 | 0.0 | 0.18 | 0.41 | 0.28 | 92 | 1014.1 |
| 20260906060009 | 22 | 174 | 0.0 | 0.0 | 0.20 | 0.41 | 0.28 | 92 | 1014.3 |
| 20260906054536 | 22 | 243 | 0.0 | 8.0 | 0.20 | 0.41 | 0.28 | 92 | 1014.2 |
| 20260906053023 | 22 | 287 | 1.6 | 6.4 | 0.15 | 0.36 | 0.23 | 92 | 1014.4 |
| 20260906051506 | 22 | 234 | 0.0 | 0.0 | 0.03 | 0.23 | 0.10 | 92 | 1014.2 |
| 20260906050006 | 22 | 233 | 0.0 | 0.0 | 0.08 | 0.20 | 0.08 | 92 | 1013.9 |
| 20260906044512 | 22 | 240 | 1.6 | 8.0 | 0.20 | 0.20 | 0.08 | 92 | 1014.1 |
| 20260906043017 | 22 | 262 | 1.6 | 3.2 | 0.20 | 0.20 | 0.08 | 91 | 1013.6 |
| 20260906041526 | 22 | 136 | 0.0 | 3.2 | 0.20 | 0.20 | 0.08 | 91 | 1013.6 |
| 20260906040016 | 22 | 136 | 0.0 | 4.8 | 0.13 | 0.13 | 0.00 | 91 | 1013.8 |
| 20260906034508 | 22 | 85 | 0.0 | 1.6 | 0.00 | 0.00 | 0.00 | 91 | 1013.5 |
| 20260906033014 | 22 | 85 | 0.0 | 0.0 | 0.00 | 0.00 | 0.00 | 91 | 1013.4 |
| 20260906031538 | 23 | 85 | 0.0 | 1.6 | 0.00 | 0.00 | 0.00 | 90 | 1013.3 |
| 20260906030025 | 23 | 85 | 0.0 | 0.0 | 0.00 | 0.00 | 0.00 | 90 | 1013.5 |
| 20260906024504 | 23 | 85 | 0.0 | 0.0 | 0.00 | 0.00 | 0.00 | 90 | 1013.8 |
| 20260906023011 | 23 | 85 | 0.0 | 0.0 | 0.00 | 0.00 | 0.00 | 89 | 1013.8 |
| 20260906021518 | 23 | 85 | 0.0 | 0.0 | 0.00 | 0.00 | 0.00 | 88 | 1013.8 |
| 20260906020023 | 23 | 85 | 0.0 | 0.0 | 0.00 | 0.00 | 0.00 | 88 | 1013.7 |
| 20260906014529 | 23 | 85 | 0.0 | 0.0 | 0.00 | 0.00 | 0.00 | 88 | 1013.7 |
| 20260906013012 | 24 | 85 | 0.0 | 0.0 | 0.00 | 0.00 | 0.00 | 86 | 1013.5 |
| 20260906011514 | 25 | 85 | 0.0 | 0.0 | 0.00 | 0.00 | 0.00 | 85 | 1013.3 |
| 20260906010034 | 25 | 85 | 0.0 | 0.0 | 0.00 | 0.00 | 0.00 | 84 | 1013.3 |
| 20260906004527 | 25 | 85 | 0.0 | 0.0 | 0.00 | 0.00 | 0.00 | 83 | 1013.5 |
| 20260906003035 | 25 | 85 | 0.0 | 0.0 | 0.00 | 0.00 | 0.00 | 81 | 1013.4 |
| 20260906001512 | 26 | 85 | 0.0 | 0.0 | 0.00 | 0.00 | 0.00 | 78 | 1013.4 |
| 20260906000019 | 26 | 85 | 0.0 | 0.0 | 0.00 | 0.00 | 0.00 | 77 | 1013.6 |
| 20260905234527 | 26 | 85 | 0.0 | 0.0 | 0.00 | 0.00 | 0.00 | 75 | 1013.6 |
| 20260905233039 | 26 | 85 | 0.0 | 1.6 | 0.00 | 0.00 | 0.00 | 74 | 1013.7 |
| 20260905231531 | 26 | 85 | 0.0 | 3.2 | 0.00 | 0.00 | 0.00 | 75 | 1013.7 |
| 20260905230037 | 27 | 85 | 0.0 | 3.2 | 0.00 | 0.00 | 0.00 | 73 | 1013.5 |
| 20260905224523 | 27 | 85 | 1.6 | 4.8 | 0.00 | 0.00 | 0.00 | 70 | 1013.5 |
| 20260905223031 | 28 | 359 | 0.0 | 1.6 | 0.00 | 0.00 | 0.00 | 70 | 1013.5 |
| 20260905221530 | 28 | 359 | 0.0 | 3.2 | 0.00 | 0.00 | 0.00 | 70 | 1013.3 |
| 20260905220037 | 29 | 359 | 0.0 | 3.2 | 0.00 | 0.00 | 0.00 | 64 | 1013.2 |
| 20260905214518 | 29 | 359 | 0.0 | 0.0 | 0.00 | 0.00 | 0.00 | 64 | 1013.2 |
| 20260905213026 | 30 | 359 | 0.0 | 1.6 | 0.00 | 0.00 | 0.00 | 63 | 1013.1 |
| 20260905211527 | 30 | 359 | 0.0 | 3.2 | 0.00 | 0.00 | 0.00 | 62 | 1013.0 |
| 20260905210045 | 31 | 359 | 1.6 | 4.8 | 0.00 | 0.00 | 0.00 | 60 | 1012.8 |
| 20260905204742 | 31 | 33 | 0.0 | 4.8 | 0.00 | 0.00 | 0.00 | 58 | 1012.9 |
| 20260905203021 | 31 | 42 | 1.6 | 4.8 | 0.00 | 0.00 | 0.00 | 54 | 1012.7 |
| 20260905201504 | 31 | 76 | 1.6 | 6.4 | 0.00 | 0.00 | 0.00 | 56 | 1013.0 |
| 20260905200004 | 31 | 321 | 3.2 | 8.0 | 0.00 | 0.00 | 0.00 | 55 | 1013.2 |
| 20260905194504 | 31 | 46 | 1.6 | 6.4 | 0.00 | 0.00 | 0.00 | 56 | 1013.4 |
| 20260905193003 | 31 | 16 | 0.0 | 8.0 | 0.00 | 0.00 | 0.00 | 58 | 1013.4 |
| 20260905191504 | 31 | 360 | 1.6 | 6.4 | 0.00 | 0.00 | 0.00 | 58 | 1013.8 |
| 20260905190007 | 31 | 75 | 1.6 | 8.0 | 0.00 | 0.00 | 0.00 | 58 | 1014.3 |
| 20260905184509 | 31 | 296 | 1.6 | 6.4 | 0.00 | 0.00 | 0.00 | 59 | 1014.5 |
| 20260905183006 | 30 | 41 | 1.6 | 6.4 | 0.00 | 0.00 | 0.00 | 56 | 1014.6 |
| 20260905181503 | 30 | 82 | 4.8 | 8.0 | 0.00 | 0.03 | 0.00 | 55 | 1014.8 |
| 20260905180003 | 30 | 91 | 1.6 | 8.0 | 0.00 | 0.03 | 0.00 | 61 | 1014.7 |
| 20260905174517 | 30 | 49 | 1.6 | 6.4 | 0.00 | 0.03 | 0.00 | 63 | 1014.9 |
| 20260905173005 | 29 | 5 | 1.6 | 6.4 | 0.00 | 0.03 | 0.00 | 65 | 1015.0 |
| 20260905171515 | 28 | 267 | 3.2 | 8.0 | 0.00 | 0.03 | 0.00 | 69 | 1014.9 |
| 20260905170008 | 27 | 259 | 1.6 | 4.8 | 0.00 | 0.03 | 0.00 | 72 | 1014.9 |
| 20260905164509 | 26 | 276 | 1.6 | 4.8 | 0.00 | 0.03 | 0.00 | 75 | 1015.0 |
| 20260905163006 | 26 | 242 | 0.0 | 3.2 | 0.00 | 0.03 | 0.00 | 76 | 1015.2 |
| 20260905161510 | 27 | 150 | 0.0 | 6.4 | 0.00 | 0.03 | 0.00 | 77 | 1015.3 |
| 20260905160008 | 27 | 47 | 1.6 | 4.8 | 0.00 | 0.03 | 0.00 | 78 | 1015.1 |
| 20260905154507 | 26 | 242 | 1.6 | 6.4 | 0.00 | 0.03 | 0.00 | 82 | 1014.5 |
| 20260905153010 | 25 | 201 | 1.6 | 4.8 | 0.00 | 0.03 | 0.00 | 85 | 1014.4 |
| 20260905151511 | 24 | 236 | 0.0 | 3.2 | 0.00 | 0.03 | 0.00 | 86 | 1015.1 |
| 20260905150010 | 24 | 139 | 1.6 | 6.4 | 0.00 | 0.03 | 0.00 | 87 | 1015.6 |
| 20260905144513 | 23 | 159 | 1.6 | 4.8 | 0.00 | 0.03 | 0.00 | 89 | 1016.3 |
| 20260905143013 | 23 | 214 | 1.6 | 8.0 | 0.00 | 0.03 | 0.00 | 89 | 1016.8 |
| 20260905141510 | 23 | 258 | 1.6 | 8.0 | 0.00 | 0.03 | 0.00 | 90 | 1017.4 |
| 20260905140015 | 23 | 72 | 0.0 | 3.2 | 0.00 | 0.03 | 0.00 | 91 | 1016.9 |
| 20260905134503 | 23 | 44 | 1.6 | 3.2 | 0.00 | 0.03 | 0.00 | 92 | 1017.2 |
| 20260905133006 | 22 | 69 | 1.6 | 9.7 | 0.00 | 0.03 | 0.00 | 93 | 1017.3 |
| 20260905131511 | 22 | 51 | 1.6 | 8.0 | 0.00 | 0.03 | 0.00 | 93 | 1017.1 |
| 20260905130014 | 22 | 53 | 1.6 | 3.2 | 0.00 | 0.03 | 0.00 | 93 | 1017.0 |
| 20260905124514 | 22 | 89 | 3.2 | 8.0 | 0.00 | 0.03 | 0.00 | 93 | 1016.5 |
| 20260905123003 | 21 | 41 | 0.0 | 11.3 | 0.00 | 0.03 | 0.00 | 93 | 1016.5 |
| 20260905121504 | 22 | 191 | 0.0 | 4.8 | 0.00 | 0.03 | 0.00 | 94 | 1015.1 |
| 20260905120020 | 21 | 220 | 1.6 | 6.4 | 0.00 | 0.03 | 0.00 | 94 | 1015.3 |
| 20260905114520 | 21 | 236 | 0.0 | 1.6 | 0.00 | 0.03 | 0.00 | 94 | 1014.9 |
| 20260905113003 | 20 | 236 | 0.0 | 0.0 | 0.00 | 0.03 | 0.00 | 94 | 1014.7 |
| 20260905111503 | 20 | 236 | 0.0 | 0.0 | 0.00 | 0.03 | 0.00 | 94 | 1014.4 |